Tonopah Airport
KTPH : now visible

Airfield :











YOU CAN JOIN US ON...

 
LOGIN :

Register | Disclaimer

   EN    FR    IT 

 









Legend :    VFR   Marginal VFR   IFR   Intensive IFR   Very Intensive IFR
Visi :
Ceiling :
>= 8 km
>= 3000ft
5 to 8 km
1000 to 3000 ft
1500m to 5 km
500 to 1000 ft
800 to 1500m
200 to 500 ft
< 800m
< 200 ft
Symbols :   Thunderstorms  Fog  Heavy snow  Heavy precipitations  Wind > 20 kt






- Airport Elevation : 5430 ft


KTPH - Tonopah

CURRENT METAR :
  • 151256Z AUTO 07005KT 10SM FEW035 FEW042 BKN100 02/M06 A2983 RMK AO2 SNB26E42 SLP080 P0000 T00171056

EXPIRED METARs :
  • 151156Z AUTO 01005KT 10SM SCT060 00/M05 A2982 RMK AO2 SLP078 T00001050 10100 21006 53013
  • 151056Z AUTO 33007KT 10SM SCT110 05/M06 A2981 RMK AO2 SLP060 T00501061
  • 150956Z AUTO 35006KT 10SM FEW075 05/M07 A2979 RMK AO2 SLP053 T00501067

TAF KTPH
Valid from the 15 at 12:00 until the 16 at 12:00 UTC


151139Z 1512/1612 34011KT P6SM BKN120
FM151700 33028G40KT P6SM SCT030
FM152200 33020G32KT P6SM SKC
FM160200 34011KT P6SM SKC



MET'MAP, your aeronautical weather chart ! - Copyright ORBIFLY December 2007 - Disclaimer

ORBIFLY MET'MAP TEAM :

Programming & Development : Alexandra Zaïnal
Concept & original design : Baudouin d'Aumeries
Assistance for programming : Marc-Olivier Méhu
Technical & hardware support : Manuel Goepfert

Contact : metmap@orbifly.com




SOURCES & CREDITS :

   NOAA       Earth
Advisory